Time;durP1;ratioP1;P1;durP2;ratioP2;P2;SDS_P1;SDS_P2;PMS_P1;PMS_P2;Temp;Humidity;BMP_temperature;BMP_pressure;BME280_temperature;BME280_humidity;BME280_pressure;Samples;Min_cycle;Max_cycle;Signal;HPM_P1;HPM_P2
2023/05/14 00:01:06;;;;;;;0.00;0.00;;;12.70;99.90;;;;;;5092428;28;20243;-56
2023/05/14 00:03:32;;;;;;;0.00;0.00;;;12.70;99.90;;;;;;5093288;28;20212;-56
2023/05/14 00:05:58;;;;;;;0.00;0.00;;;12.60;99.90;;;;;;5092887;28;20218;-56
2023/05/14 00:08:23;;;;;;;0.00;0.00;;;12.60;99.90;;;;;;5091917;28;20271;-56
2023/05/14 00:10:49;;;;;;;0.00;0.00;;;12.60;99.90;;;;;;5092769;28;20608;-56
2023/05/14 00:13:14;;;;;;;0.10;0.10;;;12.50;99.90;;;;;;5093148;28;20207;-56
2023/05/14 00:15:40;;;;;;;0.00;0.00;;;12.50;99.90;;;;;;5092472;28;20199;-56
2023/05/14 00:18:05;;;;;;;0.00;0.00;;;12.50;99.90;;;;;;5092794;28;20643;-56
2023/05/14 00:20:31;;;;;;;0.00;0.00;;;12.50;99.90;;;;;;5092628;28;20183;-56
2023/05/14 00:22:57;;;;;;;0.10;0.10;;;12.40;99.90;;;;;;5082720;28;20553;-56
2023/05/14 00:25:22;;;;;;;0.52;0.52;;;12.40;99.90;;;;;;5092712;28;20227;-56
2023/05/14 00:27:48;;;;;;;0.00;0.00;;;12.40;99.90;;;;;;5092832;28;20191;-56
2023/05/14 00:30:13;;;;;;;0.00;0.00;;;12.30;99.90;;;;;;5091749;28;20168;-56
2023/05/14 00:32:39;;;;;;;0.00;0.00;;;12.30;99.90;;;;;;5092704;28;20172;-56
2023/05/14 00:35:05;;;;;;;0.00;0.00;;;12.30;99.90;;;;;;5092696;28;20199;-56
2023/05/14 00:37:30;;;;;;;0.00;0.00;;;12.20;99.90;;;;;;5092168;28;20172;-56
2023/05/14 00:39:57;;;;;;;0.00;0.00;;;12.20;99.90;;;;;;5092241;28;20206;-57
2023/05/14 00:42:22;;;;;;;0.00;0.00;;;12.20;99.90;;;;;;5092631;28;20738;-57
2023/05/14 00:44:48;;;;;;;0.00;0.00;;;12.10;99.90;;;;;;5092518;28;20255;-57
2023/05/14 00:47:13;;;;;;;0.00;0.00;;;12.10;99.90;;;;;;5092530;28;20263;-57
2023/05/14 00:49:40;;;;;;;0.00;0.00;;;12.00;99.90;;;;;;5091839;28;20176;-57
2023/05/14 00:52:06;;;;;;;0.00;0.00;;;12.00;99.90;;;;;;5092204;28;20176;-57
2023/05/14 00:54:32;;;;;;;0.00;0.00;;;11.90;99.90;;;;;;5091704;28;20191;-57
2023/05/14 00:56:58;;;;;;;0.00;0.00;;;11.90;99.90;;;;;;5091842;28;20255;-57
2023/05/14 00:59:24;;;;;;;0.00;0.00;;;11.80;99.90;;;;;;5092226;28;20176;-57
2023/05/14 01:01:50;;;;;;;0.00;0.00;;;11.80;99.90;;;;;;5091795;28;20219;-57
2023/05/14 01:04:16;;;;;;;0.20;0.10;;;11.70;99.90;;;;;;5091351;28;20209;-57
2023/05/14 01:07:06;;;;;;;0.00;0.00;;;11.70;99.90;;;;;;5092170;28;20268;-57
2023/05/14 01:09:52;;;;;;;0.15;0.15;;;11.70;99.90;;;;;;5091225;28;20264;-57
2023/05/14 01:12:19;;;;;;;0.00;0.00;;;11.60;99.90;;;;;;5088900;28;20604;-57
2023/05/14 01:15:16;;;;;;;0.00;0.00;;;11.60;99.90;;;;;;5075736;28;20176;-57
2023/05/14 01:17:46;;;;;;;0.00;0.00;;;11.60;99.90;;;;;;5091810;28;20676;-57
2023/05/14 01:20:12;;;;;;;0.00;0.00;;;11.60;99.90;;;;;;5091097;28;20188;-57
2023/05/14 01:22:37;;;;;;;0.00;0.00;;;11.50;99.90;;;;;;5092283;28;20223;-57
2023/05/14 01:25:04;;;;;;;0.22;0.10;;;11.50;99.90;;;;;;5091946;28;20228;-57
2023/05/14 01:27:33;;;;;;;0.00;0.00;;;11.50;99.90;;;;;;5091832;28;20188;-57
2023/05/14 01:30:28;;;;;;;0.00;0.00;;;11.40;99.90;;;;;;5091340;28;20183;-57
2023/05/14 01:32:56;;;;;;;0.00;0.00;;;11.40;99.90;;;;;;5079362;28;20180;-57
2023/05/14 01:35:28;;;;;;;0.00;0.00;;;11.30;99.90;;;;;;5091250;28;20184;-57
2023/05/14 01:37:57;;;;;;;0.00;0.00;;;11.30;99.90;;;;;;5090123;28;20183;-57
2023/05/14 01:40:24;;;;;;;0.00;0.00;;;11.20;99.90;;;;;;5091140;28;20198;-57
2023/05/14 01:42:50;;;;;;;0.10;0.10;;;11.20;99.90;;;;;;5091057;28;20215;-57
2023/05/14 01:45:18;;;;;;;0.00;0.00;;;11.20;99.90;;;;;;5091598;28;20654;-57
2023/05/14 01:47:44;;;;;;;0.00;0.00;;;11.10;99.90;;;;;;5091314;28;20249;-57
2023/05/14 01:50:10;;;;;;;0.10;0.10;;;11.10;99.90;;;;;;5091557;28;20643;-57
2023/05/14 01:52:35;;;;;;;0.10;0.10;;;11.10;99.90;;;;;;5091249;28;20659;-57
2023/05/14 01:55:01;;;;;;;0.00;0.00;;;11.10;99.90;;;;;;5091344;28;20518;-57
2023/05/14 01:57:26;;;;;;;0.00;0.00;;;11.00;99.90;;;;;;5091424;28;20613;-58
2023/05/14 01:59:52;;;;;;;0.08;0.08;;;11.00;99.90;;;;;;5091231;28;20184;-57
2023/05/14 02:02:17;;;;;;;0.55;0.10;;;10.90;99.90;;;;;;5088844;28;20219;-57
2023/05/14 02:04:43;;;;;;;0.05;0.05;;;10.90;99.90;;;;;;5091263;28;20275;-57
2023/05/14 02:07:08;;;;;;;0.00;0.00;;;10.80;99.90;;;;;;5090689;28;20194;-57
2023/05/14 02:09:34;;;;;;;0.10;0.10;;;10.70;99.90;;;;;;5087909;28;20226;-57
2023/05/14 02:12:00;;;;;;;0.00;0.00;;;10.60;99.90;;;;;;5091294;28;20176;-57
2023/05/14 02:14:25;;;;;;;0.00;0.00;;;10.60;99.90;;;;;;5091101;28;20192;-57
2023/05/14 02:16:51;;;;;;;0.00;0.00;;;10.50;99.90;;;;;;5090836;28;20168;-57
2023/05/14 02:19:16;;;;;;;0.00;0.00;;;10.50;99.90;;;;;;5090923;28;20604;-57
2023/05/14 02:21:42;;;;;;;0.00;0.00;;;10.40;99.90;;;;;;5090722;28;20599;-57
2023/05/14 02:24:07;;;;;;;0.00;0.00;;;10.40;99.90;;;;;;5090588;28;20670;-57
2023/05/14 02:26:33;;;;;;;0.00;0.00;;;10.40;99.90;;;;;;5090927;28;20188;-57
2023/05/14 02:28:58;;;;;;;0.00;0.00;;;10.40;99.90;;;;;;5090695;28;20180;-57
2023/05/14 02:31:24;;;;;;;0.00;0.00;;;10.30;99.90;;;;;;5091107;28;20180;-57
2023/05/14 02:33:49;;;;;;;0.00;0.00;;;10.30;99.90;;;;;;5090784;28;20214;-57
2023/05/14 02:36:15;;;;;;;0.00;0.00;;;10.30;99.90;;;;;;5089476;28;20184;-57
2023/05/14 02:38:40;;;;;;;0.00;0.00;;;10.20;99.90;;;;;;5090783;28;20179;-57
2023/05/14 02:41:06;;;;;;;0.00;0.00;;;10.20;99.90;;;;;;5090651;28;20693;-57
2023/05/14 02:43:31;;;;;;;0.00;0.00;;;10.10;99.90;;;;;;5090769;28;20176;-57
2023/05/14 02:45:57;;;;;;;0.00;0.00;;;10.10;99.90;;;;;;5090628;28;20669;-56
2023/05/14 02:48:22;;;;;;;0.00;0.00;;;10.10;99.90;;;;;;5090959;28;20176;-57
2023/05/14 02:50:51;;;;;;;0.00;0.00;;;10.10;99.90;;;;;;5090712;28;20179;-57
2023/05/14 02:53:17;;;;;;;0.00;0.00;;;10.10;99.90;;;;;;5090533;28;20184;-57
2023/05/14 02:55:42;;;;;;;0.00;0.00;;;10.00;99.90;;;;;;5090940;28;20176;-57
2023/05/14 02:58:09;;;;;;;0.00;0.00;;;10.00;99.90;;;;;;5090471;28;20738;-57
2023/05/14 03:00:34;;;;;;;0.00;0.00;;;10.00;99.90;;;;;;5090882;28;20262;-57
2023/05/14 03:03:00;;;;;;;0.00;0.00;;;10.00;99.90;;;;;;5089928;28;20259;-57
2023/05/14 03:05:25;;;;;;;0.00;0.00;;;9.90;99.90;;;;;;5090848;28;20246;-57
2023/05/14 03:07:52;;;;;;;0.00;0.00;;;9.90;99.90;;;;;;5090444;28;20176;-57
2023/05/14 03:10:18;;;;;;;0.00;0.00;;;9.90;99.90;;;;;;5090354;28;20192;-57
2023/05/14 03:12:43;;;;;;;0.10;0.10;;;9.80;99.90;;;;;;5091935;28;20190;-57
2023/05/14 03:15:10;;;;;;;0.00;0.00;;;9.80;99.90;;;;;;5078310;28;20188;-57
2023/05/14 03:17:35;;;;;;;0.10;0.10;;;9.80;99.90;;;;;;5094200;28;20176;-57
2023/05/14 03:20:01;;;;;;;0.35;0.20;;;9.80;99.90;;;;;;5093978;28;20215;-57
2023/05/14 03:22:26;;;;;;;0.00;0.00;;;9.80;99.90;;;;;;5093786;28;20264;-57
2023/05/14 03:24:52;;;;;;;0.00;0.00;;;9.80;99.90;;;;;;5093134;28;20231;-57
2023/05/14 03:27:18;;;;;;;0.00;0.00;;;9.70;99.90;;;;;;5093715;28;20259;-57
2023/05/14 03:29:43;;;;;;;0.00;0.00;;;9.70;99.90;;;;;;5093881;28;20648;-57
2023/05/14 03:32:09;;;;;;;0.10;0.10;;;9.70;99.90;;;;;;5094137;28;20179;-57
2023/05/14 03:34:34;;;;;;;0.00;0.00;;;9.70;99.90;;;;;;5093630;28;20180;-57
2023/05/14 03:37:00;;;;;;;0.00;0.00;;;9.70;99.90;;;;;;5093400;28;20218;-57
2023/05/14 03:39:25;;;;;;;0.00;0.00;;;9.70;99.90;;;;;;5093896;28;20233;-57
2023/05/14 03:41:51;;;;;;;0.00;0.00;;;9.70;99.90;;;;;;5093818;28;20721;-57
2023/05/14 03:44:16;;;;;;;0.10;0.10;;;9.70;99.90;;;;;;5093793;28;20195;-57
2023/05/14 03:46:42;;;;;;;0.00;0.00;;;9.70;99.90;;;;;;5093320;28;20172;-57
2023/05/14 03:49:07;;;;;;;0.00;0.00;;;9.70;99.90;;;;;;5093339;28;20808;-57
2023/05/14 03:51:33;;;;;;;0.47;0.47;;;9.70;99.90;;;;;;5094023;28;20179;-57
2023/05/14 03:53:59;;;;;;;0.00;0.00;;;9.70;99.90;;;;;;5092923;28;20165;-57
2023/05/14 03:56:25;;;;;;;0.00;0.00;;;9.70;99.90;;;;;;5093746;28;20177;-57
2023/05/14 03:58:51;;;;;;;0.00;0.00;;;9.70;99.90;;;;;;5093628;28;20183;-57
2023/05/14 04:01:16;;;;;;;0.05;0.05;;;9.80;99.90;;;;;;5092979;28;20273;-57
2023/05/14 04:03:42;;;;;;;0.00;0.00;;;9.80;99.90;;;;;;5093389;28;20536;-57
2023/05/14 04:06:08;;;;;;;0.00;0.00;;;9.80;99.90;;;;;;5093599;28;20219;-57
2023/05/14 04:08:33;;;;;;;0.00;0.00;;;9.80;99.90;;;;;;5093412;28;20180;-57
2023/05/14 04:10:59;;;;;;;0.00;0.00;;;9.80;99.90;;;;;;5093130;28;20229;-57
2023/05/14 04:13:24;;;;;;;0.00;0.00;;;9.80;99.90;;;;;;5092502;28;20195;-57
2023/05/14 04:15:50;;;;;;;0.00;0.00;;;9.80;99.90;;;;;;5092590;28;20230;-57
2023/05/14 04:18:16;;;;;;;0.00;0.00;;;9.70;99.90;;;;;;5092815;28;20282;-57
2023/05/14 04:20:41;;;;;;;0.00;0.00;;;9.70;99.90;;;;;;5092543;28;20218;-57
2023/05/14 04:23:07;;;;;;;0.00;0.00;;;9.70;99.90;;;;;;5091070;28;20196;-57
2023/05/14 04:25:32;;;;;;;0.13;0.13;;;9.70;99.90;;;;;;5091520;28;20307;-57
2023/05/14 04:27:58;;;;;;;0.00;0.00;;;9.70;99.90;;;;;;5092274;28;20196;-57
2023/05/14 04:30:23;;;;;;;0.00;0.00;;;9.70;99.90;;;;;;5092621;28;20179;-56
2023/05/14 04:32:49;;;;;;;0.00;0.00;;;9.80;99.90;;;;;;5092690;28;20180;-56
2023/05/14 04:35:14;;;;;;;0.00;0.00;;;9.80;99.90;;;;;;5092302;28;20176;-56
2023/05/14 04:37:40;;;;;;;0.08;0.08;;;9.90;99.90;;;;;;5091946;28;20179;-56
2023/05/14 04:40:06;;;;;;;0.10;0.10;;;10.10;99.90;;;;;;5092183;28;20184;-56
2023/05/14 04:42:32;;;;;;;0.00;0.00;;;10.30;99.90;;;;;;5092603;28;20265;-58
2023/05/14 04:44:58;;;;;;;0.00;0.00;;;10.60;99.90;;;;;;5091395;28;20644;-56
2023/05/14 04:47:23;;;;;;;0.00;0.00;;;10.90;99.90;;;;;;5091883;28;20203;-56
2023/05/14 04:49:49;;;;;;;0.00;0.00;;;11.30;99.90;;;;;;5092321;28;20302;-56
2023/05/14 04:52:15;;;;;;;0.00;0.00;;;11.60;99.90;;;;;;5092231;28;20180;-56
2023/05/14 04:54:40;;;;;;;0.00;0.00;;;11.90;99.90;;;;;;5091436;28;20233;-56
2023/05/14 04:57:06;;;;;;;0.10;0.10;;;12.20;99.90;;;;;;5091856;28;20180;-56
2023/05/14 04:59:31;;;;;;;0.00;0.00;;;12.50;99.90;;;;;;5091724;28;20191;-56
2023/05/14 05:01:57;;;;;;;0.00;0.00;;;12.60;99.90;;;;;;5091374;28;20223;-56
2023/05/14 05:04:23;;;;;;;0.00;0.00;;;12.70;99.90;;;;;;5091994;28;20195;-56
2023/05/14 05:06:49;;;;;;;0.00;0.00;;;12.70;99.90;;;;;;5091679;28;20183;-56
2023/05/14 05:09:16;;;;;;;0.00;0.00;;;12.60;99.90;;;;;;5091760;28;20180;-57
2023/05/14 05:11:41;;;;;;;0.05;0.05;;;12.60;99.90;;;;;;5090563;28;20259;-56
2023/05/14 05:14:07;;;;;;;0.00;0.00;;;12.60;99.90;;;;;;5090709;28;20295;-57
2023/05/14 05:16:32;;;;;;;0.00;0.00;;;12.50;99.90;;;;;;5091809;28;20203;-57
2023/05/14 05:18:58;;;;;;;0.00;0.00;;;12.60;99.90;;;;;;5090959;28;20187;-56
2023/05/14 05:21:24;;;;;;;0.00;0.00;;;12.60;99.90;;;;;;5091606;28;20566;-56
2023/05/14 05:23:49;;;;;;;0.00;0.00;;;12.60;99.90;;;;;;5091307;28;20212;-56
2023/05/14 05:26:15;;;;;;;0.60;0.22;;;12.70;99.90;;;;;;5091223;28;20203;-56
2023/05/14 05:28:41;;;;;;;0.00;0.00;;;13.10;99.90;;;;;;5091595;28;20176;-56
2023/05/14 05:31:06;;;;;;;0.00;0.00;;;13.30;99.90;;;;;;5090975;28;20179;-56
2023/05/14 05:33:33;;;;;;;0.00;0.00;;;13.40;99.90;;;;;;5091230;28;20183;-56
2023/05/14 05:35:59;;;;;;;0.00;0.00;;;13.30;99.90;;;;;;5091165;28;20180;-57
2023/05/14 05:38:25;;;;;;;0.17;0.10;;;13.10;99.90;;;;;;5091291;28;20186;-56
2023/05/14 05:40:51;;;;;;;0.00;0.00;;;13.00;99.90;;;;;;5091008;28;20251;-56
2023/05/14 05:43:16;;;;;;;0.00;0.00;;;12.90;99.90;;;;;;5091530;28;20256;-56
2023/05/14 05:45:42;;;;;;;0.00;0.00;;;12.90;99.90;;;;;;5090655;28;20670;-56
2023/05/14 05:48:08;;;;;;;0.00;0.00;;;13.00;99.90;;;;;;5091020;28;20180;-57
2023/05/14 05:50:33;;;;;;;0.00;0.00;;;13.30;99.90;;;;;;5091150;28;20202;-56
2023/05/14 05:52:59;;;;;;;0.00;0.00;;;13.80;99.90;;;;;;5091260;28;20194;-57
2023/05/14 05:55:25;;;;;;;0.00;0.00;;;14.60;99.90;;;;;;5090427;28;20264;-56
2023/05/14 05:57:50;;;;;;;0.00;0.00;;;15.20;99.90;;;;;;5090458;28;20192;-57
2023/05/14 06:00:16;;;;;;;0.00;0.00;;;15.50;99.90;;;;;;5090716;28;20180;-57
2023/05/14 06:02:42;;;;;;;0.00;0.00;;;15.60;99.90;;;;;;5090923;28;20212;-56
2023/05/14 06:05:08;;;;;;;0.00;0.00;;;15.40;99.90;;;;;;5090876;28;20172;-57
2023/05/14 06:07:34;;;;;;;0.00;0.00;;;15.20;99.90;;;;;;5090673;28;20255;-56
2023/05/14 06:09:59;;;;;;;0.00;0.00;;;15.00;99.90;;;;;;5090695;28;20206;-56
2023/05/14 06:12:25;;;;;;;0.00;0.00;;;14.90;99.90;;;;;;5090412;28;20184;-56
2023/05/14 06:14:54;;;;;;;0.00;0.00;;;14.60;99.90;;;;;;5090590;28;20261;-56
2023/05/14 06:17:19;;;;;;;0.00;0.00;;;14.40;99.90;;;;;;5087955;28;20180;-57
2023/05/14 06:19:45;;;;;;;0.00;0.00;;;14.20;99.90;;;;;;5090632;28;20186;-56
2023/05/14 06:22:10;;;;;;;0.00;0.00;;;14.10;99.90;;;;;;5090032;28;20220;-56
2023/05/14 06:24:36;;;;;;;0.00;0.00;;;14.00;99.90;;;;;;5090210;28;20565;-56
2023/05/14 06:27:01;;;;;;;0.00;0.00;;;13.90;99.90;;;;;;5090209;28;20191;-57
2023/05/14 06:29:27;;;;;;;0.00;0.00;;;13.90;99.90;;;;;;5090225;28;20200;-57
2023/05/14 06:31:52;;;;;;;0.00;0.00;;;13.90;99.90;;;;;;5090467;28;20518;-57
2023/05/14 06:34:18;;;;;;;0.00;0.00;;;14.00;99.90;;;;;;5090116;28;20201;-56
2023/05/14 06:36:44;;;;;;;0.10;0.10;;;14.10;99.90;;;;;;5090687;28;20230;-56
2023/05/14 06:39:09;;;;;;;0.10;0.10;;;14.30;99.90;;;;;;5090345;28;20176;-57
2023/05/14 06:41:35;;;;;;;0.00;0.00;;;14.40;99.90;;;;;;5089939;28;20208;-57
2023/05/14 06:44:00;;;;;;;0.00;0.00;;;14.60;99.90;;;;;;5090157;28;20180;-57
2023/05/14 06:46:26;;;;;;;0.00;0.00;;;14.80;99.90;;;;;;5089959;28;20304;-57
2023/05/14 06:48:51;;;;;;;0.00;0.00;;;15.20;99.90;;;;;;5096899;28;20702;-57
2023/05/14 06:51:16;;;;;;;0.00;0.00;;;15.50;99.90;;;;;;5096715;28;20199;-57
2023/05/14 06:53:42;;;;;;;0.00;0.00;;;15.90;99.90;;;;;;5096987;28;20182;-56
2023/05/14 06:56:08;;;;;;;0.00;0.00;;;16.30;99.90;;;;;;5096265;28;20171;-57
2023/05/14 06:58:33;;;;;;;0.00;0.00;;;16.60;99.90;;;;;;5095769;28;20256;-57
2023/05/14 07:00:59;;;;;;;0.00;0.00;;;16.90;99.90;;;;;;5095549;28;20211;-57
2023/05/14 07:03:24;;;;;;;0.00;0.00;;;17.20;99.90;;;;;;5097121;28;20179;-57
2023/05/14 07:05:50;;;;;;;0.00;0.00;;;17.50;99.90;;;;;;5096421;28;20184;-57
2023/05/14 07:08:16;;;;;;;0.00;0.00;;;18.20;99.90;;;;;;5097331;28;20314;-57
2023/05/14 07:10:41;;;;;;;0.00;0.00;;;19.10;99.90;;;;;;5097374;28;20275;-57
2023/05/14 07:13:07;;;;;;;0.00;0.00;;;20.30;99.30;;;;;;5097153;28;20183;-57
2023/05/14 07:15:33;;;;;;;0.00;0.00;;;21.30;96.50;;;;;;5095684;28;20188;-56
2023/05/14 07:17:58;;;;;;;0.00;0.00;;;22.10;95.00;;;;;;5096785;28;20165;-57
2023/05/14 07:20:24;;;;;;;0.00;0.00;;;22.70;92.40;;;;;;5096460;28;20207;-57
2023/05/14 07:22:51;;;;;;;0.00;0.00;;;23.40;91.10;;;;;;5095884;28;20247;-56
2023/05/14 07:25:17;;;;;;;0.10;0.10;;;24.00;88.60;;;;;;5096628;28;20281;-55
2023/05/14 07:27:42;;;;;;;0.00;0.00;;;24.60;85.50;;;;;;5096824;28;20196;-56
2023/05/14 07:30:08;;;;;;;0.00;0.00;;;25.10;82.40;;;;;;5097170;28;20186;-57
2023/05/14 07:32:34;;;;;;;0.10;0.10;;;25.60;79.80;;;;;;5097187;28;20211;-57
2023/05/14 07:35:00;;;;;;;0.00;0.00;;;26.10;75.60;;;;;;5096817;28;20280;-57
2023/05/14 07:37:26;;;;;;;0.00;0.00;;;26.50;74.70;;;;;;5097314;28;20199;-56
2023/05/14 07:39:52;;;;;;;0.00;0.00;;;26.80;72.60;;;;;;5096846;28;20755;-56
2023/05/14 07:42:18;;;;;;;0.00;0.00;;;27.10;71.30;;;;;;5080087;28;20207;-57
2023/05/14 07:44:43;;;;;;;0.00;0.00;;;27.30;69.70;;;;;;5096797;28;20183;-56
2023/05/14 07:47:09;;;;;;;0.47;0.10;;;27.60;65.50;;;;;;5096890;28;20179;-56
2023/05/14 07:49:35;;;;;;;0.00;0.00;;;27.60;66.00;;;;;;5097239;28;20172;-56
2023/05/14 07:52:00;;;;;;;0.00;0.00;;;27.80;65.80;;;;;;5096531;28;20184;-57
2023/05/14 07:54:26;;;;;;;0.00;0.00;;;28.10;62.40;;;;;;5096616;28;20179;-57
2023/05/14 07:56:51;;;;;;;0.00;0.00;;;27.90;61.60;;;;;;5097179;28;20187;-57
2023/05/14 07:59:17;;;;;;;0.00;0.00;;;27.70;61.80;;;;;;5093792;28;20180;-57
2023/05/14 08:01:43;;;;;;;0.00;0.00;;;27.50;62.60;;;;;;5093408;28;20282;-57
2023/05/14 08:04:10;;;;;;;0.00;0.00;;;27.60;62.10;;;;;;5093174;28;20192;-56
2023/05/14 08:06:36;;;;;;;0.00;0.00;;;27.90;60.90;;;;;;5093974;28;20176;-57
2023/05/14 08:09:04;;;;;;;0.00;0.00;;;27.90;60.00;;;;;;5093434;28;20309;-57
2023/05/14 08:11:30;;;;;;;0.00;0.00;;;27.90;59.70;;;;;;5093601;28;20236;-57
2023/05/14 08:13:56;;;;;;;0.00;0.00;;;27.60;60.30;;;;;;5092647;28;20263;-56
2023/05/14 08:16:22;;;;;;;0.00;0.00;;;27.40;62.90;;;;;;5093472;28;20188;-57
2023/05/14 08:18:47;;;;;;;0.20;0.20;;;27.50;62.40;;;;;;5093652;28;20165;-57
2023/05/14 08:21:13;;;;;;;0.00;0.00;;;27.60;62.20;;;;;;5093577;28;20222;-57
2023/05/14 08:23:39;;;;;;;0.00;0.00;;;27.90;62.00;;;;;;5093255;28;20259;-57
2023/05/14 08:26:04;;;;;;;0.03;0.03;;;28.20;60.60;;;;;;5091955;28;20195;-57
2023/05/14 08:28:30;;;;;;;0.63;0.63;;;28.40;59.60;;;;;;5084138;28;20192;-57
2023/05/14 08:30:56;;;;;;;0.00;0.00;;;28.40;59.00;;;;;;5093185;28;20183;-57
2023/05/14 08:33:21;;;;;;;0.00;0.00;;;28.20;57.50;;;;;;5093192;28;20184;-57
2023/05/14 08:35:48;;;;;;;0.00;0.00;;;28.10;59.20;;;;;;5093422;28;20174;-56
2023/05/14 08:38:14;;;;;;;0.00;0.00;;;28.10;58.80;;;;;;5092815;28;20183;-57
2023/05/14 08:40:40;;;;;;;0.00;0.00;;;28.20;59.10;;;;;;5077988;28;20172;-57
2023/05/14 08:43:06;;;;;;;0.00;0.00;;;28.20;58.90;;;;;;5090571;28;20189;-57
2023/05/14 08:45:33;;;;;;;0.05;0.00;;;28.20;58.90;;;;;;5092409;28;20168;-57
2023/05/14 08:48:03;;;;;;;0.10;0.05;;;28.00;58.30;;;;;;5092542;28;20188;-57
2023/05/14 08:50:29;;;;;;;0.10;0.10;;;27.70;59.00;;;;;;5092551;28;20198;-57
2023/05/14 08:52:55;;;;;;;0.00;0.00;;;27.60;60.40;;;;;;5092885;28;20507;-57
2023/05/14 08:55:21;;;;;;;0.00;0.00;;;27.50;59.10;;;;;;5092800;28;20187;-57
2023/05/14 08:57:47;;;;;;;0.00;0.00;;;27.30;60.10;;;;;;5092768;28;20183;-56
2023/05/14 09:00:14;;;;;;;0.00;0.00;;;27.00;59.90;;;;;;5092527;28;20210;-56
2023/05/14 09:02:40;;;;;;;0.08;0.03;;;26.60;60.00;;;;;;5092485;28;20578;-56
2023/05/14 09:05:08;;;;;;;0.10;0.10;;;26.00;61.10;;;;;;5091646;28;20231;-56
2023/05/14 09:07:33;;;;;;;0.20;0.20;;;25.40;61.90;;;;;;5092358;28;20264;-56
2023/05/14 09:10:00;;;;;;;0.10;0.10;;;24.70;63.50;;;;;;5092390;28;20246;-56
2023/05/14 09:12:26;;;;;;;0.00;0.00;;;24.30;65.30;;;;;;5086157;28;20177;-57
2023/05/14 09:14:52;;;;;;;1.00;0.10;;;24.00;65.60;;;;;;5072502;28;20187;-57
2023/05/14 09:17:18;;;;;;;0.00;0.00;;;23.70;66.40;;;;;;5072085;28;20648;-57
2023/05/14 09:19:47;;;;;;;0.00;0.00;;;23.60;68.10;;;;;;5072503;28;20262;-57
2023/05/14 09:22:15;;;;;;;0.00;0.00;;;23.70;68.20;;;;;;5072283;28;20217;-57
2023/05/14 09:24:41;;;;;;;0.00;0.00;;;24.10;68.60;;;;;;5086694;28;20269;-56
2023/05/14 09:27:08;;;;;;;0.00;0.00;;;24.40;67.30;;;;;;5092257;28;20184;-57
2023/05/14 09:29:34;;;;;;;0.00;0.00;;;24.50;67.10;;;;;;5092365;28;20203;-56
2023/05/14 09:32:04;;;;;;;0.25;0.15;;;24.40;66.50;;;;;;5085623;28;20655;-57
2023/05/14 09:34:36;;;;;;;0.00;0.00;;;24.30;67.20;;;;;;5091280;28;20176;-56
2023/05/14 09:37:03;;;;;;;0.00;0.00;;;24.10;67.80;;;;;;5090380;28;20594;-57
2023/05/14 09:39:29;;;;;;;0.00;0.00;;;23.80;67.40;;;;;;5084599;28;20172;-57
2023/05/14 09:41:56;;;;;;;0.00;0.00;;;23.40;69.10;;;;;;5091313;28;20304;-57
2023/05/14 09:44:22;;;;;;;0.00;0.00;;;23.10;70.60;;;;;;5090242;28;20816;-57
2023/05/14 09:46:48;;;;;;;0.00;0.00;;;22.90;70.10;;;;;;5091455;28;20187;-56
2023/05/14 09:49:14;;;;;;;0.00;0.00;;;22.60;70.60;;;;;;5091884;28;20176;-57
2023/05/14 09:51:40;;;;;;;0.00;0.00;;;22.40;71.90;;;;;;5091893;28;20657;-57
2023/05/14 09:54:06;;;;;;;0.00;0.00;;;21.90;71.50;;;;;;5091854;28;20176;-56
2023/05/14 09:56:33;;;;;;;0.00;0.00;;;21.80;72.70;;;;;;5091565;28;20179;-56
2023/05/14 09:58:59;;;;;;;0.00;0.00;;;21.90;73.80;;;;;;5091600;28;20204;-57
2023/05/14 10:01:27;;;;;;;0.00;0.00;;;22.10;72.80;;;;;;5091419;28;20682;-57
2023/05/14 10:03:53;;;;;;;0.00;0.00;;;22.20;73.10;;;;;;5091635;28;20271;-57
2023/05/14 10:06:25;;;;;;;0.00;0.00;;;22.10;72.40;;;;;;5091128;28;20168;-57
2023/05/14 10:08:58;;;;;;;0.00;0.00;;;22.20;72.70;;;;;;5087793;28;20272;-57
2023/05/14 10:11:27;;;;;;;0.28;0.28;;;22.30;72.80;;;;;;5091049;28;20635;-56
2023/05/14 10:14:17;;;;;;;0.00;0.00;;;22.50;72.00;;;;;;5091573;28;20271;-57
2023/05/14 10:16:48;;;;;;;0.00;0.00;;;22.70;71.40;;;;;;5091588;28;20566;-56
2023/05/14 10:19:16;;;;;;;0.10;0.10;;;22.90;71.50;;;;;;5091662;28;20203;-56
2023/05/14 10:21:44;;;;;;;0.03;0.03;;;22.80;70.90;;;;;;5090940;28;20219;-57
2023/05/14 10:24:11;;;;;;;0.00;0.00;;;22.80;71.90;;;;;;5091338;28;20223;-56
2023/05/14 10:26:39;;;;;;;0.00;0.00;;;22.80;71.50;;;;;;5091676;28;20530;-56
2023/05/14 10:29:05;;;;;;;0.13;0.13;;;22.90;72.00;;;;;;5091226;28;20180;-57
2023/05/14 10:31:53;;;;;;;0.00;0.00;;;22.90;72.70;;;;;;5086914;28;20182;-56
2023/05/14 10:34:33;;;;;;;0.00;0.00;;;23.10;71.80;;;;;;5086917;28;20198;-56
2023/05/14 10:37:01;;;;;;;0.10;0.10;;;23.10;71.60;;;;;;5077997;28;20172;-57
2023/05/14 10:39:49;;;;;;;0.00;0.00;;;23.20;70.70;;;;;;5080493;28;20176;-57
2023/05/14 10:42:22;;;;;;;0.00;0.00;;;23.00;70.50;;;;;;5084285;28;20212;-57
2023/05/14 10:45:04;;;;;;;0.00;0.00;;;22.90;70.40;;;;;;5091230;28;20539;-56
2023/05/14 10:47:31;;;;;;;0.00;0.00;;;22.90;71.60;;;;;;5091341;28;20258;-56
2023/05/14 10:50:02;;;;;;;0.00;0.00;;;22.90;71.40;;;;;;5091204;28;20164;-57
2023/05/14 10:52:28;;;;;;;0.00;0.00;;;22.80;71.00;;;;;;5091501;28;20187;-59
2023/05/14 10:55:02;;;;;;;0.00;0.00;;;22.80;72.30;;;;;;5090974;28;20468;-55
2023/05/14 10:57:30;;;;;;;0.00;0.00;;;22.90;72.00;;;;;;5089763;28;20643;-55
2023/05/14 10:59:58;;;;;;;0.00;0.00;;;22.90;72.20;;;;;;5091129;28;20213;-55
2023/05/14 11:02:28;;;;;;;0.00;0.00;;;23.10;71.60;;;;;;5090475;28;20211;-55
2023/05/14 11:05:01;;;;;;;0.00;0.00;;;23.10;70.20;;;;;;5090180;28;20662;-55
2023/05/14 11:07:29;;;;;;;0.00;0.00;;;22.90;69.30;;;;;;5089745;28;20172;-55
2023/05/14 11:10:07;;;;;;;0.00;0.00;;;22.60;70.40;;;;;;5091088;28;20172;-55
2023/05/14 11:12:34;;;;;;;0.00;0.00;;;22.50;71.30;;;;;;5091136;28;20844;-55
2023/05/14 11:15:01;;;;;;;0.00;0.00;;;22.50;72.60;;;;;;5090950;28;20206;-55
2023/05/14 11:17:28;;;;;;;0.15;0.15;;;23.00;73.70;;;;;;5091063;28;20191;-55
2023/05/14 11:19:54;;;;;;;0.00;0.00;;;23.70;71.30;;;;;;5091209;28;20187;-56
2023/05/14 11:22:20;;;;;;;0.00;0.00;;;24.00;68.80;;;;;;5090571;28;20208;-55
2023/05/14 11:24:46;;;;;;;0.00;0.00;;;24.00;68.20;;;;;;5090918;28;20314;-55
2023/05/14 11:27:12;;;;;;;0.00;0.00;;;24.00;67.10;;;;;;5090904;28;20267;-56
2023/05/14 11:29:37;;;;;;;0.00;0.00;;;23.80;66.50;;;;;;5090650;28;20172;-57
2023/05/14 11:32:05;;;;;;;0.00;0.00;;;23.70;66.90;;;;;;5090891;28;20225;-56
2023/05/14 11:34:31;;;;;;;0.08;0.08;;;23.80;68.90;;;;;;5093843;28;20310;-56
2023/05/14 11:36:56;;;;;;;0.00;0.00;;;23.90;67.60;;;;;;5094110;28;20175;-57
2023/05/14 11:39:22;;;;;;;0.00;0.00;;;23.80;67.60;;;;;;5094195;28;20190;-56
2023/05/14 11:41:47;;;;;;;0.00;0.00;;;23.60;67.30;;;;;;5087181;28;20577;-56
2023/05/14 11:44:13;;;;;;;0.00;0.00;;;23.50;67.50;;;;;;5093964;28;20240;-56
2023/05/14 11:46:38;;;;;;;0.00;0.00;;;23.50;67.90;;;;;;5092521;28;20211;-56
2023/05/14 11:49:05;;;;;;;0.00;0.00;;;23.50;66.80;;;;;;5091655;28;20201;-56
2023/05/14 11:51:31;;;;;;;0.00;0.00;;;23.40;66.90;;;;;;5093980;28;20631;-56
2023/05/14 11:53:57;;;;;;;0.22;0.22;;;23.30;67.70;;;;;;5092557;28;20195;-56
2023/05/14 11:56:23;;;;;;;0.00;0.00;;;23.30;67.50;;;;;;5094282;28;20267;-56
2023/05/14 11:58:55;;;;;;;0.00;0.00;;;23.30;67.70;;;;;;5093776;28;20252;-56
2023/05/14 12:01:21;;;;;;;0.00;0.00;;;23.10;67.20;;;;;;5093147;28;20625;-56
2023/05/14 12:03:46;;;;;;;0.00;0.00;;;23.00;68.20;;;;;;5093112;28;20208;-56
2023/05/14 12:06:12;;;;;;;0.00;0.00;;;23.00;69.40;;;;;;5093274;28;20168;-56
2023/05/14 12:08:37;;;;;;;0.00;0.00;;;23.20;69.80;;;;;;5093172;28;20317;-56
2023/05/14 12:11:03;;;;;;;0.00;0.00;;;23.40;68.70;;;;;;5093171;28;20184;-56
2023/05/14 12:13:30;;;;;;;0.05;0.05;;;23.40;68.00;;;;;;5094126;28;20172;-56
2023/05/14 12:15:57;;;;;;;0.00;0.00;;;23.30;67.70;;;;;;5093622;28;20214;-56
2023/05/14 12:18:28;;;;;;;0.00;0.00;;;23.20;67.90;;;;;;5093311;28;20160;-56
2023/05/14 12:20:53;;;;;;;0.00;0.00;;;23.20;69.20;;;;;;5093848;28;20187;-57
2023/05/14 12:23:45;;;;;;;0.00;0.00;;;23.00;67.40;;;;;;5093432;28;20180;-56
2023/05/14 12:26:11;;;;;;;0.00;0.00;;;22.60;67.50;;;;;;5090162;28;20234;-56
2023/05/14 12:28:42;;;;;;;0.00;0.00;;;22.30;69.00;;;;;;5092239;28;20256;-56
2023/05/14 12:31:07;;;;;;;0.00;0.00;;;22.00;70.60;;;;;;5092787;28;20714;-57
2023/05/14 12:33:33;;;;;;;0.00;0.00;;;21.80;70.20;;;;;;5093244;28;20273;-56
2023/05/14 12:36:00;;;;;;;0.15;0.15;;;21.60;71.10;;;;;;5093240;28;20225;-56
2023/05/14 12:38:27;;;;;;;0.00;0.00;;;21.40;72.80;;;;;;5093198;28;20176;-56
2023/05/14 12:40:52;;;;;;;0.00;0.00;;;21.20;72.60;;;;;;5093143;28;20308;-56
2023/05/14 12:43:18;;;;;;;0.00;0.00;;;21.20;74.70;;;;;;5092978;28;20278;-56
2023/05/14 12:45:44;;;;;;;0.00;0.00;;;21.20;74.80;;;;;;5092143;28;20643;-56